CheckWX is a tool to help pilots better visualize weather data.  It is not intended as a substitute for an official pre-flight weather briefing.

16:33:10 UTC

LFKJ METAR
Ajaccio-Napoléon Bonaparte Airport
Ajaccio/Napoléon Bonaparte, France
Current

33 mins ago

LFKJ 201600Z AUTO 35003KT CAVOK 26/16 Q1014 TEMPO SHRA SCT040TCU FEW050CB BECMG 23010KT
Observed
Oct-20 @ 16:00 UTC
Wind
  • 350° at 3 KTS
Visibility
10,000+ meters
Flight Rules
VFR
Cloud Levels
  • Clear skies
Temperature
26°C / 79°F
Dewpoint
16°C / 61°F
Humidity
54%
Altimeter
29.94" Hg
Pressure
1013.92 hPa
Previous

1 hour ago

LFKJ 201530Z AUTO 19003KT 130V230 CAVOK 26/17 Q1014 TEMPO SHRA SCT040TCU FEW050CB
Observed
Oct-20 @ 15:30 UTC
Wind
  • 190° at 3 KTS
Visibility
10,000+ meters
Flight Rules
VFR
Cloud Levels
  • Clear skies
Temperature
26°C / 79°F
Dewpoint
17°C / 63°F
Humidity
58%
Altimeter
29.94" Hg
Pressure
1013.92 hPa
Previous

2 hours ago

LFKJ 201500Z AUTO 26008KT 210V280 9999 ///CB 26/17 Q1014 TEMPO SHRA
Observed
Oct-20 @ 15:00 UTC
Wind
  • 260° at 8 KTS
Visibility
10,000+ meters
Temperature
26°C / 79°F
Dewpoint
17°C / 63°F
Humidity
58%
Altimeter
29.94" Hg
Pressure
1013.92 hPa